Time;durP1;ratioP1;P1;durP2;ratioP2;P2;SDS_P1;SDS_P2;PMS_P1;PMS_P2;Temp;Humidity;BMP_temperature;BMP_pressure;BME280_temperature;BME280_humidity;BME280_pressure;Samples;Min_cycle;Max_cycle;Signal;HPM_P1;HPM_P2
2022/11/21 00:01:19;;;;;;;22.80;18.50;;;;;;;;;;5050438;28;20045;-73
2022/11/21 00:03:45;;;;;;;24.35;18.40;;;;;;;;;;5044136;28;20468;-73
2022/11/21 00:06:11;;;;;;;24.17;17.85;;;;;;;;;;5049765;28;20492;-73
2022/11/21 00:08:37;;;;;;;23.40;18.65;;;;;;;;;;5053848;28;20049;-73
2022/11/21 00:11:03;;;;;;;23.38;18.98;;;;;;;;;;5050134;28;20045;-73
2022/11/21 00:13:29;;;;;;;23.20;18.83;;;;;;;;;;5053576;28;20044;-72
2022/11/21 00:15:55;;;;;;;24.98;19.42;;;;;;;;;;5051871;28;20131;-73
2022/11/21 00:18:21;;;;;;;24.40;19.42;;;;;;;;;;5074854;28;20057;-72
2022/11/21 00:20:47;;;;;;;24.23;19.40;;;;;;;;;;5067951;28;20493;-72
2022/11/21 00:23:13;;;;;;;27.42;20.15;;;;;;;;;;5047896;28;20033;-73
2022/11/21 00:25:39;;;;;;;22.17;18.15;;;;;;;;;;5081126;28;20170;-73
2022/11/21 00:28:05;;;;;;;25.65;19.35;;;;;;;;;;5049428;28;20048;-72
2022/11/21 00:30:31;;;;;;;23.77;18.77;;;;;;;;;;5042130;28;20139;-73
2022/11/21 00:32:58;;;;;;;22.98;17.95;;;;;;;;;;5045843;28;20120;-73
2022/11/21 00:35:24;;;;;;;23.67;18.13;;;;;;;;;;5075840;28;20052;-73
2022/11/21 00:37:50;;;;;;;24.60;18.20;;;;;;;;;;5077895;28;20057;-73
2022/11/21 00:40:17;;;;;;;22.35;18.42;;;;;;;;;;5044113;28;20052;-73
2022/11/21 00:42:43;;;;;;;25.33;19.08;;;;;;;;;;5043737;28;20392;-73
2022/11/21 00:45:09;;;;;;;25.50;19.25;;;;;;;;;;5042431;28;20069;-73
2022/11/21 00:47:35;;;;;;;23.98;18.55;;;;;;;;;;5045266;28;20041;-73
2022/11/21 00:50:01;;;;;;;23.67;17.88;;;;;;;;;;5043555;28;20175;-72
2022/11/21 00:52:27;;;;;;;23.35;17.88;;;;;;;;;;5045515;28;21570;-73
2022/11/21 00:54:53;;;;;;;24.15;18.50;;;;;;;;;;5046099;28;20041;-73
2022/11/21 00:57:19;;;;;;;24.92;19.48;;;;;;;;;;5042238;28;20541;-73
2022/11/21 00:59:45;;;;;;;24.65;18.75;;;;;;;;;;5075540;28;20048;-72
2022/11/21 01:02:12;;;;;;;23.70;18.27;;;;;;;;;;5041563;28;20420;-73
2022/11/21 01:04:38;;;;;;;23.10;17.85;;;;;;;;;;5045039;28;20146;-73
2022/11/21 01:07:04;;;;;;;21.42;17.33;;;;;;;;;;5048176;28;20045;-72
2022/11/21 01:09:30;;;;;;;23.08;17.75;;;;;;;;;;5082032;28;20500;-73
2022/11/21 01:11:56;;;;;;;24.02;18.50;;;;;;;;;;5054767;28;20056;-73
2022/11/21 01:14:23;;;;;;;23.88;18.85;;;;;;;;;;5052055;28;20469;-73
2022/11/21 01:16:49;;;;;;;24.92;19.60;;;;;;;;;;5047601;28;20083;-72
2022/11/21 01:19:15;;;;;;;23.00;17.48;;;;;;;;;;5051207;28;20400;-72
2022/11/21 01:21:41;;;;;;;23.80;18.38;;;;;;;;;;5050040;28;20052;-73
2022/11/21 01:24:07;;;;;;;23.00;18.42;;;;;;;;;;5079765;28;20033;-73
2022/11/21 01:26:33;;;;;;;24.27;18.33;;;;;;;;;;5047237;28;20049;-73
2022/11/21 01:28:59;;;;;;;25.00;19.05;;;;;;;;;;5047819;28;20086;-73
2022/11/21 01:31:29;;;;;;;23.40;18.48;;;;;;;;;;5047224;28;20143;-73
2022/11/21 01:33:57;;;;;;;25.85;19.13;;;;;;;;;;5044722;28;20037;-73
2022/11/21 01:36:33;;;;;;;23.77;18.52;;;;;;;;;;5042285;28;20041;-73
2022/11/21 01:39:00;;;;;;;22.50;18.00;;;;;;;;;;5046573;28;20076;-73
2022/11/21 01:41:56;;;;;;;23.83;18.48;;;;;;;;;;5047760;28;20408;-73
2022/11/21 01:44:26;;;;;;;25.80;18.73;;;;;;;;;;5035202;28;20049;-72
2022/11/21 01:46:53;;;;;;;24.88;18.85;;;;;;;;;;5036288;28;20055;-72
2022/11/21 01:49:26;;;;;;;26.02;18.02;;;;;;;;;;5045703;28;20099;-73
2022/11/21 01:51:52;;;;;;;;;;;;;;;;;;5043647;28;20091;-72
2022/11/21 01:54:24;;;;;;;25.42;17.98;;;;;;;;;;5039783;28;19928;-72
2022/11/21 01:56:52;;;;;;;25.83;18.83;;;;;;;;;;5072782;28;20374;-72
2022/11/21 01:59:31;;;;;;;24.08;18.20;;;;;;;;;;5043333;28;20439;-72
2022/11/21 02:01:58;;;;;;;23.17;18.85;;;;;;;;;;5042544;28;20045;-72
2022/11/21 02:04:27;;;;;;;23.65;18.70;;;;;;;;;;5040775;28;20489;-73
2022/11/21 02:06:52;;;;;;;23.35;18.15;;;;;;;;;;5045706;28;20040;-72
2022/11/21 02:09:19;;;;;;;24.00;18.63;;;;;;;;;;5045407;28;20487;-73
2022/11/21 02:11:54;;;;;;;24.73;19.08;;;;;;;;;;5050290;28;20045;-73
2022/11/21 02:14:20;;;;;;;24.38;18.48;;;;;;;;;;5048748;28;20045;-73
2022/11/21 02:16:46;;;;;;;25.50;19.42;;;;;;;;;;5047728;28;20071;-73
2022/11/21 02:19:17;;;;;;;25.30;19.48;;;;;;;;;;5050003;28;20049;-73
2022/11/21 02:21:49;;;;;;;25.35;19.10;;;;;;;;;;5051467;28;20509;-73
2022/11/21 02:24:18;;;;;;;26.92;18.73;;;;;;;;;;5050922;28;20060;-73
2022/11/21 02:26:46;;;;;;;24.10;19.15;;;;;;;;;;5075085;28;20040;-72
2022/11/21 02:29:12;;;;;;;24.52;19.45;;;;;;;;;;5081592;28;20495;-71
2022/11/21 02:31:38;;;;;;;25.23;18.88;;;;;;;;;;5060484;28;20044;-73
2022/11/21 02:34:05;;;;;;;27.05;19.88;;;;;;;;;;5066139;28;20086;-73
2022/11/21 02:36:31;;;;;;;24.80;19.15;;;;;;;;;;5045104;28;20079;-72
2022/11/21 02:38:57;;;;;;;23.20;18.05;;;;;;;;;;5050479;28;20090;-72
2022/11/21 02:41:25;;;;;;;26.75;19.20;;;;;;;;;;5046691;28;20049;-73
2022/11/21 02:44:00;;;;;;;26.20;19.75;;;;;;;;;;5078101;28;20072;-72
2022/11/21 02:46:27;;;;;;;24.67;19.33;;;;;;;;;;5067839;28;20058;-72
2022/11/21 02:48:54;;;;;;;28.58;20.10;;;;;;;;;;5050333;28;20545;-72
2022/11/21 02:51:20;;;;;;;24.10;19.17;;;;;;;;;;5065101;28;20041;-72
2022/11/21 02:53:46;;;;;;;23.33;18.88;;;;;;;;;;5046263;28;20040;-72
2022/11/21 02:56:12;;;;;;;27.73;20.23;;;;;;;;;;5062241;28;20163;-72
2022/11/21 02:58:38;;;;;;;26.48;19.45;;;;;;;;;;5044797;28;20128;-72
2022/11/21 03:01:04;;;;;;;24.02;19.17;;;;;;;;;;5062455;28;20138;-73
2022/11/21 03:03:30;;;;;;;26.88;19.50;;;;;;;;;;5060358;28;20484;-73
2022/11/21 03:05:56;;;;;;;26.75;20.08;;;;;;;;;;5062264;28;20044;-72
2022/11/21 03:08:22;;;;;;;25.13;19.95;;;;;;;;;;5051736;28;20040;-72
2022/11/21 03:10:48;;;;;;;25.95;19.35;;;;;;;;;;5050835;28;20143;-72
2022/11/21 03:13:14;;;;;;;26.40;20.20;;;;;;;;;;5050208;28;20392;-72
2022/11/21 03:15:40;;;;;;;25.88;19.58;;;;;;;;;;5079929;28;20041;-72
2022/11/21 03:18:06;;;;;;;25.02;19.25;;;;;;;;;;5073570;28;20101;-72
2022/11/21 03:20:33;;;;;;;26.75;19.85;;;;;;;;;;5067586;28;20048;-73
2022/11/21 03:22:59;;;;;;;26.85;20.05;;;;;;;;;;5086329;28;20412;-72
2022/11/21 03:25:25;;;;;;;25.60;19.63;;;;;;;;;;5057348;28;20048;-72
2022/11/21 03:27:54;;;;;;;25.75;19.80;;;;;;;;;;5054400;28;20041;-72
2022/11/21 03:30:21;;;;;;;25.13;19.65;;;;;;;;;;5067344;28;20048;-73
2022/11/21 03:32:47;;;;;;;26.85;20.33;;;;;;;;;;5074926;28;20041;-73
2022/11/21 03:35:13;;;;;;;27.13;19.70;;;;;;;;;;5082836;28;20155;-72
2022/11/21 03:37:39;;;;;;;26.85;19.77;;;;;;;;;;5050422;28;20489;-72
2022/11/21 03:40:06;;;;;;;25.30;19.77;;;;;;;;;;5047960;28;20095;-72
2022/11/21 03:42:32;;;;;;;27.13;20.17;;;;;;;;;;5069022;28;20119;-72
2022/11/21 03:44:58;;;;;;;26.30;20.00;;;;;;;;;;5077370;28;20134;-72
2022/11/21 03:47:26;;;;;;;26.95;20.77;;;;;;;;;;5048995;28;20051;-72
2022/11/21 03:49:52;;;;;;;29.58;21.58;;;;;;;;;;5058629;28;20056;-72
2022/11/21 03:52:18;;;;;;;30.10;21.40;;;;;;;;;;5056616;28;20127;-72
2022/11/21 03:54:44;;;;;;;27.35;20.80;;;;;;;;;;5053263;28;20040;-73
2022/11/21 03:57:10;;;;;;;29.58;21.40;;;;;;;;;;5054572;28;20626;-72
2022/11/21 03:59:36;;;;;;;29.38;20.98;;;;;;;;;;5055886;28;21717;-72
2022/11/21 04:02:02;;;;;;;25.75;20.42;;;;;;;;;;5051558;28;20048;-72
2022/11/21 04:04:28;;;;;;;26.40;20.83;;;;;;;;;;5066030;28;20461;-72
2022/11/21 04:06:54;;;;;;;28.70;20.10;;;;;;;;;;5045108;28;20060;-72
2022/11/21 04:09:20;;;;;;;27.65;20.95;;;;;;;;;;5050395;28;20063;-72
2022/11/21 04:11:49;;;;;;;30.80;21.80;;;;;;;;;;5075844;28;20040;-73
2022/11/21 04:14:15;;;;;;;31.63;22.17;;;;;;;;;;5054593;28;20101;-72
2022/11/21 04:16:41;;;;;;;31.50;22.00;;;;;;;;;;5071124;28;20519;-72
2022/11/21 04:19:07;;;;;;;30.38;21.45;;;;;;;;;;5044435;28;20040;-72
2022/11/21 04:21:33;;;;;;;26.92;20.65;;;;;;;;;;5055372;28;20058;-72
2022/11/21 04:23:59;;;;;;;28.77;20.60;;;;;;;;;;5068273;28;20045;-72
2022/11/21 04:26:25;;;;;;;29.92;21.73;;;;;;;;;;5074347;28;20225;-72
2022/11/21 04:28:51;;;;;;;29.17;21.55;;;;;;;;;;5066166;28;20125;-72
2022/11/21 04:31:17;;;;;;;29.52;20.98;;;;;;;;;;5067377;28;20046;-72
2022/11/21 04:33:43;;;;;;;28.20;21.42;;;;;;;;;;5061516;28;20472;-72
2022/11/21 04:36:09;;;;;;;29.30;20.67;;;;;;;;;;5093385;28;20180;-72
2022/11/21 04:38:36;;;;;;;25.70;19.40;;;;;;;;;;5041446;28;20084;-73
2022/11/21 04:41:03;;;;;;;29.67;21.77;;;;;;;;;;5065399;28;20128;-72
2022/11/21 04:43:32;;;;;;;26.42;18.90;;;;;;;;;;5066649;28;20424;-72
2022/11/21 04:45:58;;;;;;;29.20;22.10;;;;;;;;;;5066719;28;20048;-73
2022/11/21 04:48:24;;;;;;;31.20;21.63;;;;;;;;;;5082764;28;20403;-73
2022/11/21 04:50:53;;;;;;;32.55;22.02;;;;;;;;;;5081097;28;20483;-73
2022/11/21 04:53:19;;;;;;;32.30;22.52;;;;;;;;;;5050279;28;20040;-73
2022/11/21 04:55:45;;;;;;;31.63;21.58;;;;;;;;;;5050665;28;20059;-72
2022/11/21 04:58:14;;;;;;;31.30;21.60;;;;;;;;;;5061779;28;20048;-73
2022/11/21 05:00:40;;;;;;;29.67;19.77;;;;;;;;;;5068720;28;20045;-72
2022/11/21 05:03:06;;;;;;;33.13;21.33;;;;;;;;;;5050524;28;20047;-72
2022/11/21 05:05:35;;;;;;;29.35;18.90;;;;;;;;;;5049304;28;20048;-73
2022/11/21 05:08:02;;;;;;;28.35;19.05;;;;;;;;;;5084699;28;20117;-72
2022/11/21 05:10:28;;;;;;;27.08;18.45;;;;;;;;;;5066415;28;20218;-72
2022/11/21 05:15:42;;;;;;;26.48;17.52;;;;;;;;;;5067129;28;20378;-72
2022/11/21 05:18:08;;;;;;;26.02;16.95;;;;;;;;;;5064303;28;20496;-72
2022/11/21 05:20:34;;;;;;;28.08;17.20;;;;;;;;;;5084679;28;20557;-72
2022/11/21 05:23:00;;;;;;;26.70;17.20;;;;;;;;;;5067055;28;20048;-73
2022/11/21 05:25:26;;;;;;;27.75;17.15;;;;;;;;;;5052779;28;20053;-73
2022/11/21 05:27:55;;;;;;;23.73;15.52;;;;;;;;;;5051064;28;20040;-73
2022/11/21 05:30:21;;;;;;;24.38;14.88;;;;;;;;;;5050061;28;20044;-72
2022/11/21 05:32:47;;;;;;;25.40;16.05;;;;;;;;;;5080219;28;20507;-72
2022/11/21 05:35:13;;;;;;;22.55;15.45;;;;;;;;;;5042654;28;20048;-73
2022/11/21 05:37:39;;;;;;;23.58;15.85;;;;;;;;;;5047119;28;20049;-72
2022/11/21 05:40:06;;;;;;;26.58;14.98;;;;;;;;;;5045622;28;20144;-72
2022/11/21 05:45:16;;;;;;;23.92;15.45;;;;;;;;;;5044984;28;20044;-73
2022/11/21 05:47:42;;;;;;;25.58;16.15;;;;;;;;;;5048260;28;20476;-72
2022/11/21 05:50:08;;;;;;;24.63;16.35;;;;;;;;;;5074548;28;20043;-72
2022/11/21 05:52:34;;;;;;;25.75;16.58;;;;;;;;;;5055238;28;20056;-72
2022/11/21 05:55:00;;;;;;;24.58;15.70;;;;;;;;;;5042074;28;20472;-72
2022/11/21 05:57:26;;;;;;;22.85;14.90;;;;;;;;;;5045812;28;20045;-72
2022/11/21 05:59:52;;;;;;;26.45;15.15;;;;;;;;;;5041056;28;20544;-72
2022/11/21 06:05:03;;;;;;;25.75;15.68;;;;;;;;;;5041735;28;20048;-73
2022/11/21 06:07:29;;;;;;;26.77;16.27;;;;;;;;;;5040812;28;20049;-73
2022/11/21 06:09:55;;;;;;;27.55;17.40;;;;;;;;;;5041183;28;20102;-72
2022/11/21 06:12:21;;;;;;;29.95;17.38;;;;;;;;;;5048362;28;20549;-73
2022/11/21 06:14:47;;;;;;;29.30;17.75;;;;;;;;;;5048239;28;20047;-72
2022/11/21 06:17:13;;;;;;;26.65;16.08;;;;;;;;;;5082202;28;20396;-72
2022/11/21 06:19:39;;;;;;;23.52;16.02;;;;;;;;;;5049419;28;20040;-72
2022/11/21 06:22:05;;;;;;;25.85;15.57;;;;;;;;;;5050116;28;20106;-72
2022/11/21 06:24:31;;;;;;;26.85;16.85;;;;;;;;;;5055493;28;20106;-73
2022/11/21 06:26:57;;;;;;;27.20;15.48;;;;;;;;;;5048777;28;20048;-72
2022/11/21 06:29:23;;;;;;;26.02;15.90;;;;;;;;;;5052941;28;20048;-72
2022/11/21 06:31:49;;;;;;;29.75;16.80;;;;;;;;;;5047235;28;20047;-72
2022/11/21 06:34:15;;;;;;;27.45;16.98;;;;;;;;;;5045725;28;20051;-72
2022/11/21 06:36:43;;;;;;;24.45;16.05;;;;;;;;;;5077111;28;20056;-72
2022/11/21 06:39:09;;;;;;;23.45;14.75;;;;;;;;;;5076433;28;20068;-73
2022/11/21 06:41:35;;;;;;;24.02;15.80;;;;;;;;;;5070596;28;20123;-72
2022/11/21 06:44:01;;;;;;;25.13;16.50;;;;;;;;;;5044444;28;20139;-72
2022/11/21 06:46:27;;;;;;;24.30;15.25;;;;;;;;;;5066219;28;20036;-73
2022/11/21 06:48:54;;;;;;;25.67;15.77;;;;;;;;;;5064181;28;20040;-72
2022/11/21 06:51:21;;;;;;;25.25;15.50;;;;;;;;;;5042097;28;20381;-72
2022/11/21 06:53:54;;;;;;;30.00;16.40;;;;;;;;;;5064733;28;20110;-72
2022/11/21 06:56:20;;;;;;;32.83;16.92;;;;;;;;;;5054726;28;20056;-72
2022/11/21 06:58:46;;;;;;;39.60;13.50;;;;;;;;;;5060630;28;20145;-72
2022/11/21 07:01:12;;;;;;;25.52;14.55;;;;;;;;;;5065963;28;20400;-73
2022/11/21 07:03:38;;;;;;;38.40;16.13;;;;;;;;;;5049059;28;20048;-73
2022/11/21 07:06:05;;;;;;;33.25;15.52;;;;;;;;;;5054508;28;20052;-73
2022/11/21 07:08:32;;;;;;;32.97;14.98;;;;;;;;;;5052460;28;20044;-72
2022/11/21 07:11:02;;;;;;;40.47;13.90;;;;;;;;;;5063424;28;20037;-72
2022/11/21 07:13:29;;;;;;;40.60;14.63;;;;;;;;;;5047751;28;20437;-73
2022/11/21 07:15:55;;;;;;;36.10;14.45;;;;;;;;;;5044194;28;20094;-72
2022/11/21 07:18:22;;;;;;;31.55;14.68;;;;;;;;;;5047232;28;20395;-72
2022/11/21 07:20:48;;;;;;;32.78;14.48;;;;;;;;;;5080549;28;20040;-72
2022/11/21 07:23:15;;;;;;;28.05;14.82;;;;;;;;;;5049021;28;20411;-72
2022/11/21 07:25:43;;;;;;;27.90;15.15;;;;;;;;;;5049177;28;20051;-73
2022/11/21 07:28:09;;;;;;;35.05;15.90;;;;;;;;;;5081180;28;20040;-72
2022/11/21 07:30:35;;;;;;;36.65;13.77;;;;;;;;;;5066951;28;20047;-72
2022/11/21 07:33:04;;;;;;;29.40;12.57;;;;;;;;;;5070097;28;20040;-72
2022/11/21 07:35:30;;;;;;;41.83;12.52;;;;;;;;;;5047928;28;20072;-73
2022/11/21 07:37:56;;;;;;;39.83;13.32;;;;;;;;;;5067809;28;20049;-72
2022/11/21 07:40:22;;;;;;;32.35;14.48;;;;;;;;;;5073797;28;20048;-72
2022/11/21 07:42:48;;;;;;;25.02;14.43;;;;;;;;;;5076355;28;20102;-72
2022/11/21 07:45:15;;;;;;;58.13;15.05;;;;;;;;;;5062240;28;20477;-72
2022/11/21 07:47:41;;;;;;;33.45;15.40;;;;;;;;;;5063727;28;20044;-72
2022/11/21 07:50:08;;;;;;;40.30;16.33;;;;;;;;;;5035000;28;20182;-72
2022/11/21 07:52:34;;;;;;;30.77;16.60;;;;;;;;;;5046279;28;20068;-72
2022/11/21 07:55:04;;;;;;;29.65;14.85;;;;;;;;;;5069849;28;20040;-72
2022/11/21 07:57:30;;;;;;;38.10;15.57;;;;;;;;;;5050414;28;20098;-72
2022/11/21 07:59:56;;;;;;;29.75;16.55;;;;;;;;;;5064122;28;20041;-72
2022/11/21 08:02:23;;;;;;;26.35;16.40;;;;;;;;;;5061916;28;20512;-73
2022/11/21 08:04:49;;;;;;;40.65;17.05;;;;;;;;;;5074192;28;20045;-73
2022/11/21 08:07:16;;;;;;;29.90;14.75;;;;;;;;;;5054367;28;20037;-73
2022/11/21 08:09:42;;;;;;;24.42;13.98;;;;;;;;;;5050092;28;20083;-73
2022/11/21 08:12:08;;;;;;;23.55;14.35;;;;;;;;;;5048679;28;20044;-73
2022/11/21 08:14:35;;;;;;;21.73;13.07;;;;;;;;;;5069353;28;20059;-73
2022/11/21 08:17:01;;;;;;;21.20;12.90;;;;;;;;;;5047322;28;20049;-73
2022/11/21 08:19:27;;;;;;;18.67;12.48;;;;;;;;;;5050325;28;20055;-73
2022/11/21 08:21:53;;;;;;;19.45;12.38;;;;;;;;;;5065484;28;20404;-73
2022/11/21 08:24:19;;;;;;;19.88;13.65;;;;;;;;;;5051438;28;20377;-73
2022/11/21 08:26:45;;;;;;;19.95;11.95;;;;;;;;;;5056851;28;20135;-73
2022/11/21 08:29:14;;;;;;;18.77;11.25;;;;;;;;;;5051376;28;20569;-73
2022/11/21 08:31:40;;;;;;;16.98;11.15;;;;;;;;;;5069518;28;20160;-73
2022/11/21 08:34:06;;;;;;;19.25;12.10;;;;;;;;;;5060301;28;20040;-73
2022/11/21 08:36:32;;;;;;;18.77;12.10;;;;;;;;;;5062464;28;20045;-73
2022/11/21 08:38:58;;;;;;;19.88;12.30;;;;;;;;;;5074140;28;20063;-73
2022/11/21 08:44:09;;;;;;;20.10;11.88;;;;;;;;;;5046357;28;20098;-72
2022/11/21 08:46:36;;;;;;;18.30;12.02;;;;;;;;;;5051640;28;20072;-72
2022/11/21 08:49:05;;;;;;;17.83;11.35;;;;;;;;;;5074375;28;20472;-73
2022/11/21 08:51:31;;;;;;;16.95;11.32;;;;;;;;;;5076080;28;20043;-72
2022/11/21 08:53:57;;;;;;;18.55;11.65;;;;;;;;;;5070677;28;20044;-72
2022/11/21 08:56:23;;;;;;;20.65;12.43;;;;;;;;;;5069433;28;20053;-73
2022/11/21 08:58:49;;;;;;;17.50;11.63;;;;;;;;;;5069187;28;20345;-73
2022/11/21 09:01:15;;;;;;;19.40;12.18;;;;;;;;;;5051736;28;20147;-73
2022/11/21 09:03:41;;;;;;;19.40;12.52;;;;;;;;;;5052430;28;20147;-73
2022/11/21 09:06:07;;;;;;;20.50;12.45;;;;;;;;;;5082890;28;20532;-74
2022/11/21 09:08:33;;;;;;;18.50;12.27;;;;;;;;;;5063503;28;20397;-73
2022/11/21 09:11:03;;;;;;;17.52;12.07;;;;;;;;;;5055935;28;20048;-73
2022/11/21 09:13:33;;;;;;;18.55;12.10;;;;;;;;;;5046000;28;20060;-74
2022/11/21 09:18:47;;;;;;;16.20;11.02;;;;;;;;;;5049886;28;20045;-74
2022/11/21 09:21:14;;;;;;;17.05;12.23;;;;;;;;;;5054238;28;20048;-74
2022/11/21 09:23:40;;;;;;;18.33;12.27;;;;;;;;;;5047972;28;20385;-74
2022/11/21 09:26:06;;;;;;;17.25;11.38;;;;;;;;;;5043442;28;20056;-74
2022/11/21 09:28:34;;;;;;;14.55;11.00;;;;;;;;;;5085120;28;20046;-74
2022/11/21 09:31:01;;;;;;;16.08;11.57;;;;;;;;;;5069918;28;20411;-74
2022/11/21 09:33:27;;;;;;;17.60;11.90;;;;;;;;;;5045714;28;20522;-74
2022/11/21 09:35:53;;;;;;;17.60;11.98;;;;;;;;;;5069116;28;20041;-74
2022/11/21 09:38:19;;;;;;;18.25;12.43;;;;;;;;;;5083093;28;20059;-74
2022/11/21 09:40:47;;;;;;;17.88;12.13;;;;;;;;;;5046067;28;20476;-74
2022/11/21 09:43:37;;;;;;;15.90;11.13;;;;;;;;;;5048151;28;20043;-74
2022/11/21 09:46:10;;;;;;;18.23;12.23;;;;;;;;;;5051680;28;20481;-74
2022/11/21 09:48:43;;;;;;;17.08;12.05;;;;;;;;;;5044225;28;20404;-74
2022/11/21 09:51:13;;;;;;;21.40;12.05;;;;;;;;;;5068542;28;20059;-74
2022/11/21 09:53:43;;;;;;;22.48;12.85;;;;;;;;;;5061100;28;20055;-74
2022/11/21 09:56:22;;;;;;;19.55;13.50;;;;;;;;;;5068494;28;20060;-74
2022/11/21 09:58:57;;;;;;;19.30;12.73;;;;;;;;;;5060108;28;20127;-74
2022/11/21 10:01:23;;;;;;;18.88;12.45;;;;;;;;;;5041053;28;20040;-74
2022/11/21 10:03:51;;;;;;;19.08;12.40;;;;;;;;;;5082359;28;20055;-74
2022/11/21 10:06:21;;;;;;;18.25;12.93;;;;;;;;;;5042945;28;20067;-74
2022/11/21 10:09:05;;;;;;;19.52;12.98;;;;;;;;;;5044206;28;20656;-74
2022/11/21 10:14:56;;;;;;;19.17;12.68;;;;;;;;;;5056493;28;20451;-74
2022/11/21 10:17:44;;;;;;;17.75;12.23;;;;;;;;;;5072223;28;20095;-74
2022/11/21 10:20:10;;;;;;;17.25;11.88;;;;;;;;;;5076504;28;20048;-74
2022/11/21 10:22:48;;;;;;;16.88;12.10;;;;;;;;;;5046791;28;20123;-74
2022/11/21 10:25:15;;;;;;;16.70;11.35;;;;;;;;;;5048513;28;20400;-74
2022/11/21 10:27:46;;;;;;;16.58;11.70;;;;;;;;;;5053651;28;20043;-74
2022/11/21 10:30:18;;;;;;;16.60;11.05;;;;;;;;;;5051204;28;20496;-74
2022/11/21 10:32:45;;;;;;;16.00;11.52;;;;;;;;;;5058564;28;20127;-74
2022/11/21 10:35:25;;;;;;;15.95;11.23;;;;;;;;;;5080045;28;20048;-75
2022/11/21 10:37:54;;;;;;;17.38;11.05;;;;;;;;;;5068214;28;20138;-74
2022/11/21 10:40:26;;;;;;;16.98;11.35;;;;;;;;;;5049360;28;20484;-75
2022/11/21 10:42:58;;;;;;;17.65;11.85;;;;;;;;;;5045516;28;20045;-75
2022/11/21 10:45:24;;;;;;;18.58;12.48;;;;;;;;;;5066365;28;20322;-75
2022/11/21 10:47:51;;;;;;;22.33;11.70;;;;;;;;;;5052471;28;20109;-74
2022/11/21 10:50:26;;;;;;;21.25;12.65;;;;;;;;;;5068033;28;20087;-75
2022/11/21 10:53:01;;;;;;;18.33;12.55;;;;;;;;;;5061515;28;20040;-74
2022/11/21 10:55:27;;;;;;;21.60;12.55;;;;;;;;;;5047762;28;20484;-74
2022/11/21 10:57:54;;;;;;;17.02;11.40;;;;;;;;;;5068802;28;20119;-75
2022/11/21 11:00:21;;;;;;;17.77;12.40;;;;;;;;;;5082108;28;20042;-74
2022/11/21 11:02:59;;;;;;;18.63;12.80;;;;;;;;;;5070773;28;20036;-74
2022/11/21 11:05:29;;;;;;;18.75;13.40;;;;;;;;;;5049854;28;20037;-75
2022/11/21 11:08:00;;;;;;;16.23;11.90;;;;;;;;;;5047730;28;20044;-74
2022/11/21 11:10:26;;;;;;;17.40;12.77;;;;;;;;;;5050676;28;20045;-75
2022/11/21 11:15:39;;;;;;;16.77;12.40;;;;;;;;;;5077648;28;20052;-75
2022/11/21 11:18:06;;;;;;;16.48;12.13;;;;;;;;;;5069479;28;20052;-75
2022/11/21 11:20:35;;;;;;;17.17;12.45;;;;;;;;;;5053587;28;20076;-74
2022/11/21 11:23:15;;;;;;;17.35;11.65;;;;;;;;;;5051295;28;20407;-74
2022/11/21 11:25:45;;;;;;;16.38;12.23;;;;;;;;;;5050541;28;20098;-74
2022/11/21 11:28:12;;;;;;;17.83;12.52;;;;;;;;;;5069266;28;20044;-75
2022/11/21 11:30:38;;;;;;;19.05;12.93;;;;;;;;;;5051291;28;20832;-74
2022/11/21 11:33:04;;;;;;;16.60;12.40;;;;;;;;;;5056043;28;20404;-74
2022/11/21 11:35:32;;;;;;;17.33;12.07;;;;;;;;;;5047837;28;20046;-75
2022/11/21 11:38:02;;;;;;;17.17;12.85;;;;;;;;;;5069979;28;20055;-74
2022/11/21 11:40:43;;;;;;;19.08;13.13;;;;;;;;;;5073051;28;20076;-75
2022/11/21 11:49:00;;;;;;;19.77;13.65;;;;;;;;;;5052988;28;20045;-74
2022/11/21 11:51:42;;;;;;;19.35;14.00;;;;;;;;;;5053439;28;20551;-74
2022/11/21 11:54:12;;;;;;;22.52;15.50;;;;;;;;;;5072324;28;20033;-75
2022/11/21 11:56:39;;;;;;;22.67;14.77;;;;;;;;;;5061767;28;20436;-74
2022/11/21 11:59:16;;;;;;;19.00;13.95;;;;;;;;;;5087594;28;20033;-75
2022/11/21 12:01:55;;;;;;;22.10;14.55;;;;;;;;;;5051510;28;20106;-74
2022/11/21 12:04:23;;;;;;;22.40;14.65;;;;;;;;;;5054974;28;20048;-74
2022/11/21 12:06:59;;;;;;;21.25;13.88;;;;;;;;;;5047060;28;20048;-75
2022/11/21 12:09:26;;;;;;;22.80;14.55;;;;;;;;;;5052198;28;20033;-74
2022/11/21 12:12:14;;;;;;;20.38;14.52;;;;;;;;;;5071553;28;20048;-74
2022/11/21 12:17:32;;;;;;;18.58;13.43;;;;;;;;;;5067499;28;20044;-74
2022/11/21 12:19:59;;;;;;;19.85;13.68;;;;;;;;;;5053679;28;20071;-74
2022/11/21 12:22:25;;;;;;;21.83;14.32;;;;;;;;;;5067011;28;20113;-75
2022/11/21 12:24:51;;;;;;;21.02;14.63;;;;;;;;;;5052972;28;20551;-75
2022/11/21 12:27:23;;;;;;;22.23;14.10;;;;;;;;;;5085661;28;20135;-74
2022/11/21 12:30:03;;;;;;;20.33;13.68;;;;;;;;;;5084774;28;20051;-74
2022/11/21 12:32:29;;;;;;;21.83;15.00;;;;;;;;;;5053158;28;20063;-75
2022/11/21 12:34:55;;;;;;;20.20;14.20;;;;;;;;;;5048150;28;20047;-74
2022/11/21 12:37:21;;;;;;;20.25;14.10;;;;;;;;;;5049581;28;20065;-74
2022/11/21 12:40:08;;;;;;;18.75;13.55;;;;;;;;;;5082111;28;20044;-74
2022/11/21 12:42:49;;;;;;;20.02;14.27;;;;;;;;;;5083859;28;20041;-74
2022/11/21 12:45:23;;;;;;;20.90;14.88;;;;;;;;;;5068552;28;20071;-74
2022/11/21 12:54:32;;;;;;;21.77;14.35;;;;;;;;;;5065631;28;20045;-73
2022/11/21 12:57:05;;;;;;;21.08;14.55;;;;;;;;;;5064964;28;20036;-73
2022/11/21 12:59:33;;;;;;;20.75;14.82;;;;;;;;;;5051281;28;20047;-73
2022/11/21 13:02:08;;;;;;;21.60;15.90;;;;;;;;;;5046897;28;20064;-73
2022/11/21 13:04:42;;;;;;;21.80;15.32;;;;;;;;;;5075889;28;20040;-74
2022/11/21 13:07:08;;;;;;;22.80;15.07;;;;;;;;;;5051021;28;20656;-73
2022/11/21 13:09:38;;;;;;;25.05;15.38;;;;;;;;;;5071998;28;20036;-73
2022/11/21 13:12:08;;;;;;;22.40;15.75;;;;;;;;;;5051336;28;20037;-74
2022/11/21 13:14:35;;;;;;;22.48;15.77;;;;;;;;;;5069457;28;20136;-73
2022/11/21 13:17:19;;;;;;;23.65;16.02;;;;;;;;;;5065127;28;20069;-73
2022/11/21 13:19:51;;;;;;;23.73;15.82;;;;;;;;;;5063540;28;20056;-73
2022/11/21 13:22:35;;;;;;;25.52;16.83;;;;;;;;;;5049429;28;20496;-81
2022/11/21 13:25:20;;;;;;;23.27;15.55;;;;;;;;;;5053211;28;20056;-73
2022/11/21 13:27:46;;;;;;;25.20;16.83;;;;;;;;;;5065620;28;20510;-73
2022/11/21 13:30:13;;;;;;;25.38;16.58;;;;;;;;;;5049887;28;20131;-73
2022/11/21 13:32:47;;;;;;;23.83;15.38;;;;;;;;;;5048144;28;20500;-73
2022/11/21 13:35:15;;;;;;;24.75;16.30;;;;;;;;;;5074441;28;20053;-73
2022/11/21 13:38:03;;;;;;;28.08;18.55;;;;;;;;;;5070212;28;20144;-73
2022/11/21 13:40:29;;;;;;;30.10;18.40;;;;;;;;;;5070639;28;20080;-73
2022/11/21 13:43:15;;;;;;;29.33;17.10;;;;;;;;;;5053569;28;20071;-73
2022/11/21 13:45:55;;;;;;;27.73;17.75;;;;;;;;;;5069506;28;20090;-73
2022/11/21 13:48:30;;;;;;;27.10;17.60;;;;;;;;;;5069212;28;20068;-73
2022/11/21 13:51:05;;;;;;;28.08;17.38;;;;;;;;;;5046968;28;20094;-73
2022/11/21 13:53:56;;;;;;;31.75;18.17;;;;;;;;;;5070787;28;20067;-73
2022/11/21 13:56:33;;;;;;;31.75;19.60;;;;;;;;;;5051156;28;20044;-73
2022/11/21 13:58:59;;;;;;;29.33;19.00;;;;;;;;;;5072104;28;20480;-73
2022/11/21 14:01:31;;;;;;;29.48;18.90;;;;;;;;;;5051076;28;20163;-73
2022/11/21 14:04:00;;;;;;;31.63;20.00;;;;;;;;;;5070502;28;20044;-73
2022/11/21 14:06:26;;;;;;;30.90;19.08;;;;;;;;;;5052169;28;20143;-74
2022/11/21 14:09:07;;;;;;;32.45;18.83;;;;;;;;;;5065945;28;20440;-74
2022/11/21 14:11:41;;;;;;;33.58;18.73;;;;;;;;;;5053140;28;20044;-73
2022/11/21 14:14:07;;;;;;;;;;;;;;;;;;5050620;28;20404;-73
2022/11/21 14:16:40;;;;;;;29.83;18.38;;;;;;;;;;5055029;28;19921;-73
2022/11/21 14:19:06;;;;;;;;;;;;;;;;;;5054927;28;20052;-74
2022/11/21 14:21:35;;;;;;;32.33;17.38;;;;;;;;;;5055587;28;19974;-73
2022/11/21 14:24:03;;;;;;;36.75;18.13;;;;;;;;;;5065888;28;20051;-73
2022/11/21 14:26:33;;;;;;;25.02;15.80;;;;;;;;;;5050813;28;21432;-73
2022/11/21 14:29:18;;;;;;;29.60;17.55;;;;;;;;;;5051456;28;20044;-73
2022/11/21 14:31:45;;;;;;;30.30;17.23;;;;;;;;;;5070684;28;20072;-73
2022/11/21 14:34:11;;;;;;;31.25;17.52;;;;;;;;;;5051395;28;20094;-74
2022/11/21 14:36:38;;;;;;;29.00;16.50;;;;;;;;;;5066889;28;20032;-74
2022/11/21 14:39:15;;;;;;;31.17;17.80;;;;;;;;;;5050482;28;20443;-73
2022/11/21 14:41:42;;;;;;;28.17;16.73;;;;;;;;;;5055330;28;20040;-74
2022/11/21 14:44:08;;;;;;;33.33;16.27;;;;;;;;;;5067808;28;20036;-74
2022/11/21 14:46:38;;;;;;;28.27;16.95;;;;;;;;;;5048775;28;20036;-73
2022/11/21 14:49:17;;;;;;;28.92;16.30;;;;;;;;;;5057280;28;20044;-73
2022/11/21 14:51:51;;;;;;;29.20;16.38;;;;;;;;;;5051619;28;20040;-73
2022/11/21 14:54:20;;;;;;;27.52;16.80;;;;;;;;;;5051790;28;20105;-73
2022/11/21 14:56:47;;;;;;;29.58;15.25;;;;;;;;;;5068853;28;20402;-73
2022/11/21 14:59:23;;;;;;;34.10;16.73;;;;;;;;;;5050121;28;20052;-73
2022/11/21 15:01:54;;;;;;;26.98;16.83;;;;;;;;;;5068240;28;20084;-73